Time;durP1;ratioP1;P1;durP2;ratioP2;P2;SDS_P1;SDS_P2;PMS_P1;PMS_P2;Temp;Humidity;BMP_temperature;BMP_pressure;BME280_temperature;BME280_humidity;BME280_pressure;Samples;Min_cycle;Max_cycle;Signal;HPM_P1;HPM_P2
2022/11/05 00:10:28;;;;;;;13.45;7.32;;;10.80;78.50;;;;;;5027833;28;20025;-63
2022/11/05 00:18:24;;;;;;;11.55;6.40;;;10.90;78.60;;;;;;5022167;28;20106;-63
2022/11/05 00:20:50;;;;;;;11.55;6.05;;;11.00;78.70;;;;;;5037446;28;20120;-63
2022/11/05 00:26:03;;;;;;;9.80;5.35;;;11.00;78.70;;;;;;5019822;28;20091;-63
2022/11/05 00:28:29;;;;;;;8.75;5.13;;;11.00;78.80;;;;;;5021694;28;20030;-62
2022/11/05 00:31:01;;;;;;;12.32;5.43;;;11.10;78.90;;;;;;5036492;28;20106;-63
2022/11/05 00:33:26;;;;;;;9.85;4.68;;;11.10;79.00;;;;;;5020233;28;20034;-63
2022/11/05 00:35:52;;;;;;;11.80;4.60;;;11.10;78.90;;;;;;5027397;28;20083;-63
2022/11/05 00:38:18;;;;;;;10.07;4.80;;;11.10;78.90;;;;;;5034774;28;20029;-63
2022/11/05 00:40:44;;;;;;;8.55;4.13;;;11.10;79.00;;;;;;5030482;28;20025;-63
2022/11/05 00:45:54;;;;;;;11.52;4.65;;;11.10;79.00;;;;;;5017233;28;20029;-63
2022/11/05 00:51:04;;;;;;;10.35;4.32;;;11.10;79.00;;;;;;5013818;28;20104;-63
2022/11/05 00:53:30;;;;;;;7.45;4.28;;;11.10;79.00;;;;;;5024812;28;20494;-63
2022/11/05 00:55:55;;;;;;;8.23;4.22;;;11.10;79.00;;;;;;5022086;28;20030;-63
2022/11/05 00:58:22;;;;;;;7.63;4.18;;;11.00;79.00;;;;;;5036493;28;20091;-63
2022/11/05 01:00:50;;;;;;;10.95;4.15;;;11.00;79.00;;;;;;5021766;28;20038;-62
2022/11/05 01:03:17;;;;;;;10.30;4.35;;;11.00;79.00;;;;;;5016205;28;20292;-63
2022/11/05 01:05:46;;;;;;;8.45;3.97;;;11.00;79.00;;;;;;5030538;28;20498;-63
2022/11/05 01:08:13;;;;;;;9.88;4.47;;;11.00;79.10;;;;;;5032736;28;20430;-62
2022/11/05 01:10:46;;;;;;;8.55;3.95;;;10.90;79.00;;;;;;5031396;28;20037;-63
2022/11/05 01:13:12;;;;;;;10.32;4.05;;;10.90;79.00;;;;;;5033002;28;20405;-62
2022/11/05 01:15:39;;;;;;;8.20;3.80;;;10.90;79.00;;;;;;5025491;28;20076;-63
2022/11/05 01:18:05;;;;;;;10.20;4.28;;;10.90;79.00;;;;;;5030022;28;20025;-63
2022/11/05 01:20:31;;;;;;;8.77;4.32;;;10.80;79.00;;;;;;5026340;28;20048;-63
2022/11/05 01:22:57;;;;;;;8.18;3.85;;;10.80;79.00;;;;;;5030186;28;20454;-63
2022/11/05 01:25:23;;;;;;;9.23;3.92;;;10.80;79.00;;;;;;5020553;28;20021;-63
2022/11/05 01:27:49;;;;;;;6.82;4.00;;;10.80;78.90;;;;;;5026961;28;20045;-63
2022/11/05 01:30:14;;;;;;;7.95;3.70;;;10.80;78.90;;;;;;5025309;28;20033;-63
2022/11/05 01:32:40;;;;;;;7.30;4.00;;;10.70;78.80;;;;;;5026356;28;20018;-62
2022/11/05 01:35:09;;;;;;;10.88;4.50;;;10.70;78.80;;;;;;5016013;28;20149;-63
2022/11/05 01:37:35;;;;;;;8.05;3.85;;;10.60;78.70;;;;;;5031792;28;20104;-63
2022/11/05 01:40:01;;;;;;;8.07;3.80;;;10.60;78.80;;;;;;5016285;28;20113;-63
2022/11/05 01:42:30;;;;;;;8.45;4.20;;;10.60;78.70;;;;;;5028369;28;20116;-63
2022/11/05 01:45:01;;;;;;;9.65;3.88;;;10.60;78.70;;;;;;5026112;28;20034;-62
2022/11/05 01:47:45;;;;;;;8.10;3.83;;;10.60;78.70;;;;;;5027965;28;20079;-63
2022/11/05 01:50:50;;;;;;;6.88;3.58;;;10.50;78.60;;;;;;5033864;28;20025;-62
2022/11/05 01:53:43;;;;;;;8.63;4.00;;;10.50;78.60;;;;;;5013008;28;20133;-63
2022/11/05 01:56:16;;;;;;;8.13;3.90;;;10.50;78.70;;;;;;5020769;28;20099;-62
2022/11/05 01:58:59;;;;;;;7.32;3.70;;;10.50;78.70;;;;;;5035664;28;20399;-62
2022/11/05 02:01:25;;;;;;;7.28;3.60;;;10.50;78.70;;;;;;5033268;28;20037;-63
2022/11/05 02:03:54;;;;;;;9.27;4.18;;;10.40;78.70;;;;;;5031995;28;20032;-63
2022/11/05 02:06:20;;;;;;;9.93;3.92;;;10.50;79.40;;;;;;5013989;28;20350;-63
2022/11/05 02:09:04;;;;;;;7.57;3.80;;;10.50;78.70;;;;;;5014794;28;20025;-63
2022/11/05 02:11:30;;;;;;;9.05;4.13;;;10.50;78.70;;;;;;5028939;28;20037;-63
2022/11/05 02:13:56;;;;;;;8.57;3.75;;;10.40;78.60;;;;;;5035252;28;20049;-63
2022/11/05 02:16:44;;;;;;;7.50;4.05;;;10.40;78.70;;;;;;5018960;28;20026;-63
2022/11/05 02:19:18;;;;;;;8.98;4.35;;;10.40;78.60;;;;;;5017444;28;20474;-62
2022/11/05 02:22:11;;;;;;;8.68;4.47;;;10.40;78.70;;;;;;5019505;28;20042;-63
2022/11/05 02:24:55;;;;;;;8.10;4.03;;;10.40;78.60;;;;;;5026640;28;20355;-63
2022/11/05 02:27:35;;;;;;;10.45;3.95;;;10.40;78.70;;;;;;5022261;28;20115;-62
2022/11/05 02:30:17;;;;;;;7.35;4.07;;;10.40;78.70;;;;;;5026629;28;20071;-63
2022/11/05 02:33:34;;;;;;;8.70;4.13;;;10.40;78.70;;;;;;5014530;28;20034;-63
2022/11/05 02:36:37;;;;;;;6.85;3.85;;;10.40;78.70;;;;;;5007991;28;20056;-63
2022/11/05 02:39:28;;;;;;;7.97;4.20;;;10.30;78.60;;;;;;5018489;28;20468;-63
2022/11/05 02:42:29;;;;;;;9.52;4.63;;;10.30;78.70;;;;;;5028844;28;20104;-63
2022/11/05 02:45:25;;;;;;;9.07;4.32;;;10.30;78.80;;;;;;5026721;28;20034;-62
2022/11/05 02:47:54;;;;;;;8.25;4.35;;;10.30;78.80;;;;;;5019729;28;20021;-62
2022/11/05 02:50:36;;;;;;;10.18;4.13;;;10.30;78.80;;;;;;5033083;28;20026;-62
2022/11/05 02:53:19;;;;;;;7.72;4.13;;;10.30;78.80;;;;;;5020353;28;20099;-63
2022/11/05 02:55:52;;;;;;;7.75;4.25;;;10.30;78.80;;;;;;5015959;28;20045;-63
2022/11/05 02:58:17;;;;;;;8.52;4.18;;;10.30;78.90;;;;;;5013478;28;20029;-63
2022/11/05 03:00:46;;;;;;;7.18;4.03;;;10.30;78.90;;;;;;5031253;28;20095;-62
2022/11/05 03:03:27;;;;;;;9.52;4.63;;;10.20;78.80;;;;;;5033309;28;20029;-62
2022/11/05 03:06:19;;;;;;;8.02;4.57;;;10.20;78.80;;;;;;5026865;28;20703;-63
2022/11/05 03:08:45;;;;;;;;;;;10.20;78.70;;;;;;5021106;28;20021;-63
2022/11/05 03:11:17;;;;;;;6.80;3.55;;;10.20;78.80;;;;;;5028352;28;19916;-63
2022/11/05 03:14:04;;;;;;;8.32;4.00;;;10.20;78.90;;;;;;5034118;28;20084;-63
2022/11/05 03:16:47;;;;;;;9.02;3.92;;;10.10;78.80;;;;;;5025207;28;20303;-63
2022/11/05 03:19:30;;;;;;;7.60;3.83;;;10.20;78.90;;;;;;5028597;28;20048;-63
2022/11/05 03:22:01;;;;;;;7.25;3.53;;;10.20;78.80;;;;;;5028435;28;20069;-63
2022/11/05 03:24:33;;;;;;;7.40;4.05;;;10.20;78.90;;;;;;5025946;28;20328;-63
2022/11/05 03:27:11;;;;;;;9.20;4.93;;;10.10;78.70;;;;;;5029015;28;20422;-63
2022/11/05 03:29:43;;;;;;;9.60;4.53;;;10.10;78.70;;;;;;5031832;28;20446;-62
2022/11/05 03:32:10;;;;;;;8.18;3.83;;;10.10;78.80;;;;;;5027620;28;20084;-62
2022/11/05 03:34:45;;;;;;;7.68;3.85;;;10.10;78.80;;;;;;5025445;28;20040;-62
2022/11/05 03:37:10;;;;;;;7.85;4.00;;;10.10;78.80;;;;;;5026910;28;20434;-62
2022/11/05 03:39:40;;;;;;;8.07;4.22;;;10.10;78.80;;;;;;5019951;28;20029;-62
2022/11/05 03:42:10;;;;;;;9.35;3.90;;;10.10;78.90;;;;;;5025225;28;20026;-63
2022/11/05 03:44:40;;;;;;;8.02;3.65;;;10.10;78.90;;;;;;5011501;28;20362;-62
2022/11/05 03:47:14;;;;;;;9.10;4.03;;;10.10;79.00;;;;;;5026414;28;20029;-63
2022/11/05 03:49:47;;;;;;;6.68;3.75;;;10.10;78.90;;;;;;5023999;28;20172;-63
2022/11/05 03:52:18;;;;;;;7.72;3.20;;;10.10;78.90;;;;;;5023325;28;20095;-62
2022/11/05 03:54:45;;;;;;;10.10;3.60;;;10.10;78.90;;;;;;5014391;28;20049;-63
2022/11/05 03:57:35;;;;;;;6.90;2.97;;;10.00;78.80;;;;;;5022471;28;20026;-63
2022/11/05 04:00:00;;;;;;;7.38;3.72;;;10.00;78.70;;;;;;5021476;28;20458;-62
2022/11/05 04:02:26;;;;;;;6.13;3.40;;;10.00;78.70;;;;;;5027708;28;20419;-62
2022/11/05 04:04:53;;;;;;;9.25;4.00;;;10.00;78.70;;;;;;5018213;28;20048;-62
2022/11/05 04:17:05;;;;;;;9.75;3.75;;;10.00;78.70;;;;;;5014857;28;20386;-63
2022/11/05 04:18:20;;;;;;;7.18;3.38;;;9.90;78.70;;;;;;5017708;28;20037;-62
2022/11/05 04:26:14;;;;;;;7.55;3.35;;;9.80;78.60;;;;;;5028569;28;20042;-62
2022/11/05 04:31:26;;;;;;;6.57;3.45;;;9.80;78.60;;;;;;5032107;28;20053;-62
2022/11/05 04:33:51;;;;;;;6.97;3.10;;;9.80;78.60;;;;;;5020557;28;20048;-63
2022/11/05 04:36:18;;;;;;;8.75;3.40;;;9.90;78.70;;;;;;5035780;28;20480;-62
2022/11/05 04:38:44;;;;;;;6.50;3.30;;;9.80;78.60;;;;;;5024189;28;20110;-62
2022/11/05 04:41:14;;;;;;;9.05;3.53;;;9.80;78.60;;;;;;5021787;28;20113;-63
2022/11/05 04:43:40;;;;;;;8.32;3.47;;;9.80;78.60;;;;;;5025546;28;20033;-63
2022/11/05 04:46:05;;;;;;;6.38;3.15;;;9.80;78.60;;;;;;5026562;28;20534;-62
2022/11/05 04:48:31;;;;;;;5.95;2.92;;;9.80;78.60;;;;;;5025413;28;20049;-63
2022/11/05 04:50:57;;;;;;;6.53;3.05;;;9.80;78.60;;;;;;5030860;28;20061;-62
2022/11/05 04:53:22;;;;;;;6.22;3.10;;;9.80;78.50;;;;;;5025013;28;20281;-62
2022/11/05 04:55:48;;;;;;;8.35;3.75;;;9.80;78.50;;;;;;5025298;28;20045;-63
2022/11/05 04:58:14;;;;;;;6.40;3.53;;;9.80;78.60;;;;;;5026932;28;20137;-63
2022/11/05 05:00:39;;;;;;;9.48;3.63;;;9.80;78.50;;;;;;5018211;28;20018;-62
2022/11/05 05:03:05;;;;;;;7.65;3.55;;;9.80;78.60;;;;;;5020482;28;20443;-62
2022/11/05 05:05:30;;;;;;;7.00;3.33;;;9.70;78.60;;;;;;5017279;28;20037;-63
2022/11/05 05:08:05;;;;;;;8.38;3.10;;;9.70;78.60;;;;;;5029347;28;20030;-62
2022/11/05 05:10:31;;;;;;;8.35;3.40;;;9.70;78.60;;;;;;5017748;28;20036;-62
2022/11/05 05:12:57;;;;;;;9.02;3.80;;;9.70;78.60;;;;;;5027145;28;20454;-62
2022/11/05 05:15:23;;;;;;;7.75;3.67;;;9.70;78.60;;;;;;5023224;28;20112;-63
2022/11/05 05:17:52;;;;;;;7.28;3.50;;;9.70;78.60;;;;;;5025426;28;20129;-62
2022/11/05 05:23:03;;;;;;;10.82;4.13;;;9.70;78.60;;;;;;5023118;28;20053;-63
2022/11/05 05:25:29;;;;;;;9.63;4.00;;;9.70;78.60;;;;;;5033743;28;20041;-62
2022/11/05 05:27:58;;;;;;;8.90;4.13;;;9.70;78.60;;;;;;5027281;28;20037;-63
2022/11/05 05:30:24;;;;;;;9.13;4.18;;;9.70;78.60;;;;;;5023307;28;20029;-62
2022/11/05 05:32:50;;;;;;;9.23;3.72;;;9.70;78.60;;;;;;5027455;28;20030;-63
2022/11/05 05:35:16;;;;;;;8.90;4.25;;;9.60;78.60;;;;;;5032293;28;20029;-62
2022/11/05 05:37:43;;;;;;;7.63;3.67;;;9.60;79.30;;;;;;5024751;28;20049;-62
2022/11/05 05:40:09;;;;;;;7.88;3.33;;;9.60;78.60;;;;;;5018686;28;20033;-63
2022/11/05 05:42:35;;;;;;;7.00;3.83;;;9.60;78.60;;;;;;5028671;28;20086;-63
2022/11/05 05:45:00;;;;;;;10.38;4.50;;;9.60;78.60;;;;;;5030419;28;20101;-63
2022/11/05 05:47:26;;;;;;;7.85;3.80;;;9.60;78.70;;;;;;5025337;28;20033;-62
2022/11/05 05:49:51;;;;;;;10.05;4.35;;;9.60;78.60;;;;;;5019847;28;20049;-62
2022/11/05 05:52:17;;;;;;;9.38;4.90;;;9.60;78.60;;;;;;5019510;28;20029;-62
2022/11/05 05:54:43;;;;;;;10.23;4.60;;;9.50;78.60;;;;;;5020882;28;20116;-62
2022/11/05 05:57:08;;;;;;;10.02;4.45;;;9.60;78.60;;;;;;5022911;28;20125;-62
2022/11/05 05:59:34;;;;;;;7.90;4.10;;;9.50;78.60;;;;;;5025426;28;20053;-63
2022/11/05 06:01:59;;;;;;;11.00;3.95;;;9.50;78.60;;;;;;5035371;28;20108;-62
2022/11/05 06:04:25;;;;;;;8.88;5.00;;;9.50;78.60;;;;;;5018224;28;20021;-63
2022/11/05 06:06:51;;;;;;;10.45;4.50;;;9.50;78.60;;;;;;5024721;28;20492;-62
2022/11/05 06:09:16;;;;;;;8.77;4.65;;;9.50;78.60;;;;;;5022248;28;20435;-63
2022/11/05 06:11:42;;;;;;;7.15;3.90;;;9.50;78.60;;;;;;5025967;28;20028;-62
2022/11/05 06:14:12;;;;;;;7.88;4.20;;;9.50;78.70;;;;;;5025454;28;20062;-62
2022/11/05 06:16:38;;;;;;;8.85;4.10;;;9.50;78.60;;;;;;5021522;28;20029;-63
2022/11/05 06:19:05;;;;;;;8.13;4.32;;;9.50;78.60;;;;;;5015925;28;20022;-63
2022/11/05 06:21:31;;;;;;;7.78;4.00;;;9.50;78.70;;;;;;5024561;28;20457;-63
2022/11/05 06:23:58;;;;;;;9.50;4.70;;;9.50;78.70;;;;;;5018939;28;20033;-63
2022/11/05 06:26:24;;;;;;;8.98;4.38;;;9.40;78.60;;;;;;5022760;28;20052;-63
2022/11/05 06:28:49;;;;;;;11.02;4.22;;;9.40;78.60;;;;;;5013636;28;20085;-62
2022/11/05 06:31:15;;;;;;;7.07;4.18;;;9.40;78.60;;;;;;5015209;28;20038;-62
2022/11/05 06:33:41;;;;;;;8.45;4.43;;;9.40;78.60;;;;;;5017936;28;20077;-63
2022/11/05 06:36:10;;;;;;;8.38;4.40;;;9.50;78.70;;;;;;5031412;28;20349;-62
2022/11/05 06:38:36;;;;;;;10.38;4.53;;;9.40;78.60;;;;;;5029499;28;20021;-63
2022/11/05 06:41:02;;;;;;;8.00;4.75;;;9.40;78.60;;;;;;5031067;28;20312;-63
2022/11/05 06:43:28;;;;;;;7.75;4.18;;;9.40;78.60;;;;;;5034927;28;20033;-63
2022/11/05 06:45:55;;;;;;;8.48;4.53;;;9.40;78.60;;;;;;5034837;28;20022;-62
2022/11/05 06:48:21;;;;;;;8.90;4.22;;;9.40;78.60;;;;;;5035027;28;20490;-62
2022/11/05 06:50:46;;;;;;;7.85;4.60;;;9.40;78.60;;;;;;5022180;28;20025;-63
2022/11/05 06:53:13;;;;;;;9.07;4.22;;;9.40;78.60;;;;;;5031981;28;20422;-63
2022/11/05 06:55:38;;;;;;;9.25;4.45;;;9.40;78.60;;;;;;5034585;28;20029;-63
2022/11/05 06:58:04;;;;;;;9.85;4.93;;;9.40;78.60;;;;;;5028605;28;20152;-63
2022/11/05 07:00:29;;;;;;;8.75;4.43;;;9.40;78.60;;;;;;5028029;28;20029;-63
2022/11/05 07:03:02;;;;;;;11.38;4.57;;;9.40;78.50;;;;;;5028508;28;20069;-63
2022/11/05 07:05:28;;;;;;;10.48;4.97;;;9.40;78.50;;;;;;5020426;28;20073;-63
2022/11/05 07:07:54;;;;;;;8.23;4.43;;;9.40;78.60;;;;;;5029172;28;20068;-63
2022/11/05 07:10:19;;;;;;;11.85;4.90;;;9.40;78.60;;;;;;5014463;28;20072;-63
2022/11/05 07:12:45;;;;;;;9.88;4.50;;;9.40;78.60;;;;;;5030148;28;20026;-63
2022/11/05 07:15:11;;;;;;;10.70;5.03;;;9.50;78.60;;;;;;5024747;28;20180;-63
2022/11/05 07:17:38;;;;;;;9.90;4.72;;;9.50;78.60;;;;;;5013994;28;20097;-63
2022/11/05 07:20:05;;;;;;;7.70;4.53;;;9.50;78.60;;;;;;5018788;28;20056;-63
2022/11/05 07:22:33;;;;;;;10.73;5.50;;;9.50;79.20;;;;;;5017840;28;20096;-63
2022/11/05 07:24:58;;;;;;;12.30;5.05;;;9.60;78.50;;;;;;5013144;28;20033;-63
2022/11/05 07:27:24;;;;;;;8.75;5.18;;;9.60;78.50;;;;;;5013295;28;20026;-63
2022/11/05 07:29:49;;;;;;;9.80;5.07;;;9.60;78.50;;;;;;5012246;28;20308;-63
2022/11/05 07:32:15;;;;;;;9.45;5.22;;;9.50;78.40;;;;;;5016071;28;20026;-63
2022/11/05 07:34:41;;;;;;;8.95;4.88;;;9.60;78.50;;;;;;5014184;28;20034;-63
2022/11/05 07:37:06;;;;;;;9.98;5.50;;;9.60;78.60;;;;;;5014728;28;20092;-63
2022/11/05 07:39:32;;;;;;;10.65;5.18;;;9.60;78.60;;;;;;5019449;28;20030;-63
2022/11/05 07:41:58;;;;;;;11.00;5.55;;;9.60;78.60;;;;;;5010095;28;20117;-63
2022/11/05 07:44:30;;;;;;;9.98;5.60;;;9.70;78.70;;;;;;5026550;28;20034;-64
2022/11/05 07:46:56;;;;;;;11.32;5.30;;;9.70;78.70;;;;;;5012895;28;20038;-64
2022/11/05 07:49:22;;;;;;;9.18;5.60;;;9.70;78.60;;;;;;5013024;28;20026;-63
2022/11/05 07:51:48;;;;;;;10.50;5.57;;;9.70;78.60;;;;;;5014211;28;20072;-64
2022/11/05 07:54:14;;;;;;;12.60;5.97;;;9.70;78.50;;;;;;5013466;28;20030;-64
2022/11/05 07:56:39;;;;;;;10.32;5.20;;;9.80;78.60;;;;;;5026856;28;20408;-64
2022/11/05 07:59:05;;;;;;;12.50;6.32;;;9.80;78.50;;;;;;5020278;28;20108;-64
2022/11/05 08:01:31;;;;;;;10.50;6.10;;;9.80;78.60;;;;;;5012989;28;20046;-63
2022/11/05 08:03:56;;;;;;;12.85;6.82;;;9.90;78.60;;;;;;5017697;28;20072;-62
2022/11/05 08:06:22;;;;;;;10.48;5.75;;;9.90;78.50;;;;;;5016721;28;20025;-64
2022/11/05 08:08:48;;;;;;;9.90;5.70;;;9.90;78.50;;;;;;5037531;28;20033;-62
2022/11/05 08:11:13;;;;;;;12.15;6.18;;;9.90;78.50;;;;;;5025809;28;20044;-63
2022/11/05 08:13:39;;;;;;;10.65;6.38;;;10.00;78.50;;;;;;5024411;28;20022;-64
2022/11/05 08:16:05;;;;;;;12.48;6.72;;;10.00;78.40;;;;;;5019115;28;20332;-64
2022/11/05 08:18:31;;;;;;;8.82;5.55;;;10.10;78.40;;;;;;5024082;28;20045;-63
2022/11/05 08:21:02;;;;;;;12.50;6.85;;;10.10;78.40;;;;;;5019859;28;20052;-63
2022/11/05 08:23:29;;;;;;;13.15;6.85;;;10.10;78.30;;;;;;5017866;28;20069;-63
2022/11/05 08:25:56;;;;;;;11.80;6.90;;;10.20;78.30;;;;;;5019022;28;20030;-63
2022/11/05 08:28:23;;;;;;;11.85;6.88;;;10.20;78.30;;;;;;5032075;28;20037;-63
2022/11/05 08:30:49;;;;;;;12.20;7.20;;;10.20;78.30;;;;;;5017592;28;20104;-63
2022/11/05 08:33:16;;;;;;;10.07;6.45;;;10.30;78.30;;;;;;5023056;28;20025;-64
2022/11/05 08:35:41;;;;;;;12.10;6.50;;;10.40;78.20;;;;;;5016981;28;20110;-63
2022/11/05 08:38:12;;;;;;;11.95;6.43;;;10.40;78.10;;;;;;5031686;28;20021;-63
2022/11/05 08:40:38;;;;;;;12.55;6.32;;;10.50;78.00;;;;;;5027841;28;20030;-63
2022/11/05 08:43:06;;;;;;;11.05;6.68;;;10.50;77.90;;;;;;5025692;28;20385;-63
2022/11/05 08:45:32;;;;;;;11.23;6.85;;;10.60;77.90;;;;;;5020344;28;20039;-63
2022/11/05 08:48:08;;;;;;;10.68;6.55;;;10.70;77.90;;;;;;5036311;28;20041;-63
2022/11/05 08:50:34;;;;;;;12.65;6.93;;;10.70;77.70;;;;;;5036613;28;20119;-63
2022/11/05 08:53:00;;;;;;;12.45;6.55;;;10.80;77.70;;;;;;5036722;28;20052;-63
2022/11/05 08:55:26;;;;;;;12.20;6.30;;;10.90;77.60;;;;;;5036769;28;20029;-63
2022/11/05 08:58:00;;;;;;;12.13;6.18;;;10.90;77.50;;;;;;5037078;28;20330;-63
2022/11/05 09:00:27;;;;;;;11.00;5.95;;;11.00;77.50;;;;;;5036912;28;20450;-63
2022/11/05 09:02:53;;;;;;;12.10;6.72;;;11.10;77.40;;;;;;5036577;28;20367;-63
2022/11/05 09:05:18;;;;;;;11.50;6.07;;;11.20;77.30;;;;;;5026933;28;20116;-63
2022/11/05 09:07:45;;;;;;;11.63;6.30;;;11.30;77.20;;;;;;5036799;28;20334;-63
2022/11/05 09:10:11;;;;;;;10.80;6.18;;;11.40;76.90;;;;;;5036521;28;20033;-63
2022/11/05 09:12:37;;;;;;;11.00;6.22;;;11.40;76.70;;;;;;5036190;28;20351;-63
2022/11/05 09:15:03;;;;;;;10.68;6.35;;;11.60;76.70;;;;;;5033532;28;20021;-63
2022/11/05 09:17:29;;;;;;;11.65;7.05;;;11.60;76.50;;;;;;5036491;28;20445;-63
2022/11/05 09:19:54;;;;;;;10.10;5.30;;;11.70;76.40;;;;;;5036281;28;20041;-63
2022/11/05 09:22:20;;;;;;;12.52;6.47;;;11.80;76.20;;;;;;5036595;28;20350;-63
2022/11/05 09:24:46;;;;;;;13.05;6.30;;;11.90;76.10;;;;;;5036483;28;20029;-63
2022/11/05 09:27:13;;;;;;;12.50;6.75;;;12.00;75.90;;;;;;5036486;28;20439;-63
2022/11/05 09:29:39;;;;;;;9.80;5.57;;;12.10;75.70;;;;;;5036285;28;20045;-63
2022/11/05 09:32:06;;;;;;;8.93;5.25;;;12.20;75.50;;;;;;5036151;28;20033;-63
2022/11/05 09:34:32;;;;;;;10.68;5.63;;;12.30;75.20;;;;;;5022108;28;20355;-64
2022/11/05 09:36:57;;;;;;;11.75;5.70;;;12.40;74.90;;;;;;5021923;28;20194;-63
2022/11/05 09:39:23;;;;;;;11.05;5.32;;;12.50;74.60;;;;;;5036777;28;20079;-63
2022/11/05 09:41:52;;;;;;;10.52;5.70;;;12.70;74.50;;;;;;5036339;28;20029;-63
2022/11/05 09:44:22;;;;;;;10.45;5.18;;;12.80;74.20;;;;;;5036118;28;20029;-63
2022/11/05 09:46:58;;;;;;;12.13;5.03;;;13.00;73.80;;;;;;5033878;28;20156;-63
2022/11/05 09:49:34;;;;;;;8.50;4.50;;;13.20;73.40;;;;;;5015262;28;20112;-63
2022/11/05 09:52:00;;;;;;;10.23;5.38;;;13.30;73.00;;;;;;5032906;28;20419;-63
2022/11/05 09:54:30;;;;;;;8.35;4.97;;;13.50;72.70;;;;;;5035513;28;20072;-64
2022/11/05 09:56:58;;;;;;;9.32;4.80;;;13.70;72.30;;;;;;5035809;28;20033;-63
2022/11/05 09:59:29;;;;;;;8.10;5.13;;;13.80;71.90;;;;;;5035649;28;20030;-63
2022/11/05 10:02:02;;;;;;;9.82;4.75;;;13.90;71.70;;;;;;5035883;28;20076;-63
2022/11/05 10:04:30;;;;;;;9.57;5.00;;;14.00;71.40;;;;;;5033568;28;20128;-63
2022/11/05 10:07:01;;;;;;;8.27;4.65;;;14.10;71.20;;;;;;5035522;28;20036;-63
2022/11/05 10:09:31;;;;;;;;;;;14.20;70.80;;;;;;5036009;28;20651;-63
2022/11/05 10:12:05;;;;;;;9.23;4.45;;;14.30;70.80;;;;;;5035176;28;19955;-63
2022/11/05 10:14:43;;;;;;;9.35;4.90;;;14.40;70.40;;;;;;5035238;28;20175;-63
2022/11/05 10:17:16;;;;;;;10.65;4.57;;;14.50;69.90;;;;;;5035540;28;20038;-63
2022/11/05 10:20:03;;;;;;;10.57;5.07;;;14.70;69.70;;;;;;5034972;28;20053;-63
2022/11/05 10:22:29;;;;;;;7.95;4.47;;;14.70;69.40;;;;;;5019330;28;20085;-63
2022/11/05 10:24:55;;;;;;;9.38;4.82;;;14.80;69.20;;;;;;5030551;28;20473;-63
2022/11/05 10:27:30;;;;;;;8.50;4.35;;;14.90;69.10;;;;;;5035191;28;20029;-63
2022/11/05 10:29:56;;;;;;;7.85;4.00;;;15.00;68.80;;;;;;5035158;28;20172;-63
2022/11/05 10:32:38;;;;;;;9.48;4.57;;;15.10;68.60;;;;;;5034867;28;20022;-63
2022/11/05 10:35:06;;;;;;;9.85;4.20;;;15.20;68.10;;;;;;5024918;28;20029;-63
2022/11/05 10:37:32;;;;;;;8.52;4.10;;;15.20;68.10;;;;;;5020679;28;20029;-63
2022/11/05 10:39:58;;;;;;;8.23;4.40;;;15.30;67.90;;;;;;5034811;28;20029;-64
2022/11/05 10:42:57;;;;;;;8.32;3.60;;;15.30;67.70;;;;;;5033577;28;20371;-64
2022/11/05 10:45:58;;;;;;;9.02;4.38;;;15.30;67.60;;;;;;5034622;28;20362;-64
2022/11/05 10:48:46;;;;;;;11.30;5.32;;;15.30;68.30;;;;;;5034623;28;20037;-64
2022/11/05 10:51:12;;;;;;;12.77;4.47;;;15.00;67.80;;;;;;5013566;28;20171;-63
2022/11/05 10:53:41;;;;;;;8.88;4.07;;;14.90;68.20;;;;;;5020485;28;20043;-64
2022/11/05 10:56:28;;;;;;;10.50;4.47;;;14.80;69.20;;;;;;5014916;28;20111;-64
2022/11/05 10:58:56;;;;;;;10.63;4.20;;;14.60;68.60;;;;;;5028639;28;20450;-64
2022/11/05 11:01:23;;;;;;;10.68;4.53;;;14.50;68.90;;;;;;5017641;28;20149;-64
2022/11/05 11:04:02;;;;;;;9.48;4.25;;;14.40;69.10;;;;;;5027096;28;20022;-64
2022/11/05 11:06:31;;;;;;;7.68;4.22;;;14.30;69.20;;;;;;5027875;28;20026;-64
2022/11/05 11:09:00;;;;;;;8.27;4.25;;;14.20;69.30;;;;;;5048199;28;20040;-64
2022/11/05 11:11:41;;;;;;;8.07;4.75;;;14.10;69.40;;;;;;5022216;28;20025;-63
2022/11/05 11:14:12;;;;;;;8.90;4.53;;;14.10;69.30;;;;;;5032854;28;20447;-62
2022/11/05 11:16:43;;;;;;;8.80;4.38;;;14.00;69.30;;;;;;5018938;28;20030;-63
2022/11/05 11:19:32;;;;;;;9.38;4.80;;;14.00;69.30;;;;;;5028302;28;20084;-63
2022/11/05 11:22:04;;;;;;;10.52;4.50;;;14.00;69.20;;;;;;5024676;28;20111;-63
2022/11/05 11:24:41;;;;;;;8.85;4.20;;;13.90;69.20;;;;;;5030185;28;20393;-63
2022/11/05 11:27:33;;;;;;;8.07;4.07;;;13.90;69.20;;;;;;5024304;28;20038;-63
2022/11/05 11:30:04;;;;;;;9.00;4.43;;;13.80;69.10;;;;;;5013227;28;20046;-63
2022/11/05 11:32:36;;;;;;;9.93;4.97;;;13.80;69.20;;;;;;5018932;28;20044;-63
2022/11/05 11:35:02;;;;;;;10.27;4.35;;;13.80;69.20;;;;;;5031991;28;20662;-63
2022/11/05 11:37:33;;;;;;;9.75;4.53;;;13.70;69.30;;;;;;5022312;28;20017;-63
2022/11/05 11:40:15;;;;;;;8.07;4.00;;;13.70;69.30;;;;;;5038142;28;20476;-63
2022/11/05 11:42:45;;;;;;;8.65;3.83;;;13.70;69.30;;;;;;5025072;28;20021;-63
2022/11/05 11:45:26;;;;;;;8.05;4.22;;;13.80;69.30;;;;;;5038031;28;20030;-63
2022/11/05 11:47:53;;;;;;;7.47;3.73;;;13.70;69.20;;;;;;5024337;28;20037;-63
2022/11/05 11:50:40;;;;;;;7.55;3.58;;;13.70;69.30;;;;;;5026498;28;20060;-62
2022/11/05 11:53:18;;;;;;;8.38;3.97;;;13.70;69.20;;;;;;5018575;28;20045;-63
2022/11/05 11:56:05;;;;;;;8.38;3.80;;;13.70;69.20;;;;;;5031952;28;20120;-63
2022/11/05 11:58:48;;;;;;;7.40;3.63;;;13.70;69.20;;;;;;5037134;28;20037;-62
2022/11/05 12:01:50;;;;;;;10.27;3.83;;;13.60;69.20;;;;;;5038106;28;20040;-63
2022/11/05 12:04:41;;;;;;;9.68;4.13;;;13.60;69.20;;;;;;5037696;28;20029;-62
2022/11/05 12:07:28;;;;;;;9.50;3.35;;;13.60;69.20;;;;;;5009620;28;20447;-63
2022/11/05 12:10:03;;;;;;;7.63;3.88;;;13.60;69.20;;;;;;5016585;28;20122;-63
2022/11/05 12:12:43;;;;;;;8.82;3.53;;;13.60;69.20;;;;;;5016474;28;20056;-63
2022/11/05 12:15:18;;;;;;;9.10;4.03;;;13.60;69.30;;;;;;5016409;28;20038;-63
2022/11/05 12:17:58;;;;;;;8.65;4.07;;;13.60;69.40;;;;;;5016465;28;20081;-63
2022/11/05 12:20:39;;;;;;;8.23;3.58;;;13.60;69.30;;;;;;5016027;28;20057;-63
2022/11/05 12:23:22;;;;;;;7.15;3.55;;;13.50;69.20;;;;;;5009226;28;20040;-63
2022/11/05 12:26:12;;;;;;;6.80;3.72;;;13.50;69.30;;;;;;4999929;28;20038;-62
2022/11/05 12:29:20;;;;;;;8.43;3.92;;;13.50;69.40;;;;;;5016242;28;20112;-63
2022/11/05 12:32:22;;;;;;;8.60;3.80;;;13.50;69.30;;;;;;4999418;28;20505;-62
2022/11/05 12:35:09;;;;;;;8.27;3.58;;;13.40;69.50;;;;;;5016059;28;20037;-63
2022/11/05 12:38:00;;;;;;;9.15;4.55;;;13.40;69.60;;;;;;5002034;28;20042;-63
2022/11/05 12:40:44;;;;;;;;;;;13.40;69.60;;;;;;5015220;28;20038;-63
2022/11/05 12:43:25;;;;;;;8.23;3.20;;;13.40;69.70;;;;;;5018182;28;19936;-62
2022/11/05 12:46:09;;;;;;;9.18;4.03;;;13.40;69.60;;;;;;5037418;28;20303;-63
2022/11/05 12:48:50;;;;;;;9.93;3.63;;;13.40;69.70;;;;;;5036512;28;20049;-63
2022/11/05 12:51:30;;;;;;;8.27;3.58;;;13.40;69.70;;;;;;5026589;28;20038;-63
2022/11/05 12:54:05;;;;;;;8.70;4.05;;;13.40;69.80;;;;;;5036156;28;20029;-62
2022/11/05 12:56:48;;;;;;;9.23;3.78;;;13.50;69.80;;;;;;5037099;28;20083;-62
2022/11/05 12:59:25;;;;;;;9.68;3.83;;;13.50;69.70;;;;;;5036937;28;20094;-63
2022/11/05 13:02:19;;;;;;;9.95;4.32;;;13.50;69.60;;;;;;5035823;28;20117;-63
2022/11/05 13:05:12;;;;;;;8.38;3.80;;;13.50;69.50;;;;;;5036962;28;20094;-63
2022/11/05 13:07:43;;;;;;;6.82;3.50;;;13.50;69.50;;;;;;5029510;28;20060;-63
2022/11/05 13:10:17;;;;;;;8.77;3.95;;;13.50;69.60;;;;;;5036655;28;20026;-62
2022/11/05 13:12:47;;;;;;;8.65;4.00;;;13.50;69.60;;;;;;5036839;28;20038;-62
2022/11/05 13:15:36;;;;;;;10.90;4.90;;;13.50;69.60;;;;;;5028795;28;20074;-63
2022/11/05 13:18:12;;;;;;;8.00;4.07;;;13.50;69.50;;;;;;5036531;28;20025;-62
2022/11/05 13:20:40;;;;;;;8.32;4.03;;;13.50;69.60;;;;;;5014850;28;20038;-63
2022/11/05 13:23:16;;;;;;;8.27;4.63;;;13.50;69.60;;;;;;5027481;28;20026;-63
2022/11/05 13:25:49;;;;;;;7.65;4.00;;;13.50;69.50;;;;;;5013086;28;20419;-63
2022/11/05 13:28:34;;;;;;;9.23;4.63;;;13.50;69.50;;;;;;5015361;28;20033;-63
2022/11/05 13:31:04;;;;;;;8.95;4.70;;;13.50;69.40;;;;;;5018180;28;20025;-63
2022/11/05 13:33:35;;;;;;;10.40;5.05;;;13.50;69.50;;;;;;5015969;28;20395;-63
2022/11/05 13:39:13;;;;;;;11.40;4.63;;;13.50;69.40;;;;;;5014172;28;20327;-63
2022/11/05 13:42:00;;;;;;;10.82;5.10;;;13.40;69.40;;;;;;5014257;28;20324;-63
2022/11/05 13:44:38;;;;;;;9.35;5.03;;;13.40;69.40;;;;;;5014180;28;20106;-62
2022/11/05 13:47:13;;;;;;;11.80;5.57;;;13.40;69.40;;;;;;5016875;28;20030;-63
2022/11/05 13:50:16;;;;;;;9.77;4.75;;;13.40;69.50;;;;;;5012172;28;20037;-62
2022/11/05 13:53:21;;;;;;;9.25;4.25;;;13.40;69.60;;;;;;5015521;28;20076;-63
2022/11/05 13:56:14;;;;;;;10.00;4.80;;;13.30;69.60;;;;;;4998079;28;20357;-62
2022/11/05 13:58:52;;;;;;;10.57;4.65;;;13.30;69.70;;;;;;5031471;28;20037;-63